createdAt,value
2019-01-03T00:01:03.449Z,-0.70
2019-01-03T00:03:58.036Z,-0.80
2019-01-03T00:06:45.540Z,-0.80
2019-01-03T00:09:46.182Z,-0.90
2019-01-03T00:12:53.121Z,-0.80
2019-01-03T00:15:41.693Z,-0.90
2019-01-03T00:18:30.290Z,-0.90
2019-01-03T00:21:17.535Z,-0.90
2019-01-03T00:24:06.065Z,-1.00
2019-01-03T00:26:53.693Z,-0.90
2019-01-03T00:29:38.965Z,-0.90
2019-01-03T00:32:36.538Z,-0.90
2019-01-03T00:35:24.481Z,-1.00
2019-01-03T00:38:25.172Z,-1.00
2019-01-03T00:41:07.117Z,-1.00
2019-01-03T00:43:54.229Z,-1.00
2019-01-03T00:46:42.781Z,-1.00
2019-01-03T00:49:43.329Z,-1.00
2019-01-03T00:52:34.696Z,-0.90
2019-01-03T00:55:33.294Z,-1.00
2019-01-03T00:58:34.037Z,-0.90
2019-01-03T01:01:40.762Z,-0.90
2019-01-03T01:04:27.635Z,-1.00
2019-01-03T01:07:21.764Z,-1.00
2019-01-03T01:10:09.163Z,-1.00
2019-01-03T01:13:12.553Z,-1.00
2019-01-03T01:16:01.198Z,-1.00
2019-01-03T01:18:52.522Z,-1.00
2019-01-03T01:21:43.670Z,-1.00
2019-01-03T01:24:44.341Z,-1.00
2019-01-03T01:27:35.969Z,-0.90
2019-01-03T01:30:28.826Z,-1.00
2019-01-03T01:33:16.090Z,-1.10
2019-01-03T01:35:56.501Z,-1.00
2019-01-03T01:38:35.546Z,-1.00
2019-01-03T01:41:29.901Z,-0.90
2019-01-03T01:44:17.337Z,-0.90
2019-01-03T01:47:08.657Z,-0.90
2019-01-03T01:50:15.388Z,-0.90
2019-01-03T01:53:10.229Z,-0.80
2019-01-03T01:56:01.793Z,-0.90
2019-01-03T01:58:50.344Z,-0.90
2019-01-03T02:01:37.538Z,-0.90
2019-01-03T02:04:24.190Z,-1.00
2019-01-03T02:07:24.764Z,-1.00
2019-01-03T02:10:09.852Z,-0.90
2019-01-03T02:13:05.936Z,-0.80
2019-01-03T02:15:59.790Z,-0.90
2019-01-03T02:19:00.309Z,-0.80
2019-01-03T02:22:01.248Z,-0.80
2019-01-03T02:24:48.351Z,-0.90
2019-01-03T02:27:52.094Z,-0.80
2019-01-03T02:30:39.554Z,-0.80
2019-01-03T02:33:36.980Z,-0.90
2019-01-03T02:36:24.379Z,-1.00
2019-01-03T02:39:10.199Z,-1.00
2019-01-03T02:42:01.681Z,-0.90
2019-01-03T02:44:50.320Z,-0.90
2019-01-03T02:47:38.905Z,-0.90
2019-01-03T02:50:26.430Z,-0.80
2019-01-03T02:53:13.809Z,-0.80
2019-01-03T02:56:01.183Z,-0.80
2019-01-03T02:58:52.503Z,-0.80
2019-01-03T03:01:36.457Z,-0.80
2019-01-03T03:04:36.935Z,-0.70
2019-01-03T03:07:28.287Z,-0.80
2019-01-03T03:10:15.481Z,-0.80
2019-01-03T03:13:09.936Z,-0.80
2019-01-03T03:15:58.534Z,-0.90
2019-01-03T03:18:52.940Z,-0.80
2019-01-03T03:21:47.663Z,-0.80
2019-01-03T03:24:39.255Z,-0.90
2019-01-03T03:27:26.577Z,-0.90
2019-01-03T03:30:13.710Z,-0.90
2019-01-03T03:33:08.374Z,-0.90
2019-01-03T03:35:56.904Z,-0.90
2019-01-03T03:38:48.579Z,-0.90
2019-01-03T03:41:37.203Z,-1.00
2019-01-03T03:44:24.721Z,-1.00
2019-01-03T03:47:08.783Z,-1.00
2019-01-03T03:49:55.899Z,-1.10
2019-01-03T03:52:48.194Z,-1.10
2019-01-03T03:55:39.612Z,-1.20
2019-01-03T03:58:26.809Z,-1.10
2019-01-03T04:01:33.425Z,-1.10
2019-01-03T04:04:35.642Z,-1.10
2019-01-03T04:07:27.058Z,-1.00
2019-01-03T04:10:12.212Z,-0.90
2019-01-03T04:13:00.805Z,-0.90
2019-01-03T04:16:01.500Z,-0.80
2019-01-03T04:18:55.890Z,-0.80
2019-01-03T04:21:47.212Z,-0.80
2019-01-03T04:24:35.785Z,-0.80
2019-01-03T04:27:23.515Z,-0.80
2019-01-03T04:30:12.400Z,-0.80
2019-01-03T04:33:06.814Z,-0.80
2019-01-03T04:35:55.390Z,-0.70
2019-01-03T04:38:49.332Z,-0.80
2019-01-03T04:41:46.886Z,-0.80
2019-01-03T04:44:30.479Z,-0.90
2019-01-03T04:47:14.442Z,-0.80
2019-01-03T04:50:12.428Z,-1.00
2019-01-03T04:52:59.935Z,-1.10
2019-01-03T04:55:34.799Z,-1.00
2019-01-03T04:58:35.401Z,-1.00
2019-01-03T05:01:58.322Z,-0.90
2019-01-03T05:04:49.922Z,-0.90
2019-01-03T05:07:41.335Z,-0.80
2019-01-03T05:10:41.819Z,-0.80
2019-01-03T05:13:39.406Z,-0.90
2019-01-03T05:16:34.085Z,-0.90
2019-01-03T05:19:42.442Z,-0.80
2019-01-03T05:22:48.861Z,-0.80
2019-01-03T05:25:49.907Z,-0.90
2019-01-03T05:28:41.508Z,-0.90
2019-01-03T05:31:42.190Z,-0.90
2019-01-03T05:34:33.601Z,-0.80
2019-01-03T05:37:20.737Z,-0.80
2019-01-03T05:40:04.875Z,-1.20
2019-01-03T05:42:52.255Z,-1.40
2019-01-03T05:45:39.693Z,-1.30
2019-01-03T05:48:17.218Z,-1.30
2019-01-03T05:51:17.611Z,-1.20
2019-01-03T05:54:10.622Z,-1.20
2019-01-03T05:56:59.219Z,-1.10
2019-01-03T05:59:46.649Z,-1.10
2019-01-03T06:02:33.965Z,-1.10
2019-01-03T06:05:31.480Z,-1.00
2019-01-03T06:08:22.719Z,-0.90
2019-01-03T06:11:09.377Z,-0.90
2019-01-03T06:14:10.170Z,-0.80
2019-01-03T06:16:57.216Z,-0.80
2019-01-03T06:19:48.933Z,-0.70
2019-01-03T06:22:55.618Z,-0.70
2019-01-03T06:25:45.481Z,-0.60
2019-01-03T06:28:34.101Z,-0.60
2019-01-03T06:31:28.718Z,-0.60
2019-01-03T06:34:20.290Z,-0.60
2019-01-03T06:37:27.058Z,-0.50
2019-01-03T06:40:19.757Z,-0.50
2019-01-03T06:43:15.275Z,-0.50
2019-01-03T06:46:02.650Z,-0.50
2019-01-03T06:49:06.272Z,-0.40
2019-01-03T06:52:13.165Z,-0.40
2019-01-03T06:54:56.065Z,-0.40
2019-01-03T06:57:43.469Z,-0.50
2019-01-03T07:00:50.353Z,-0.50
2019-01-03T07:03:44.973Z,-0.60
2019-01-03T07:06:33.581Z,-0.50
2019-01-03T07:09:28.161Z,-0.50
2019-01-03T07:12:11.909Z,-0.50
2019-01-03T07:14:59.346Z,-0.60
2019-01-03T07:17:42.513Z,-0.70
2019-01-03T07:20:29.853Z,-0.60
2019-01-03T07:23:24.800Z,-0.60
2019-01-03T07:26:12.066Z,-0.60
2019-01-03T07:29:03.474Z,-0.60
2019-01-03T07:31:50.508Z,-0.50
2019-01-03T07:34:41.846Z,-0.50
2019-01-03T07:37:29.317Z,-0.50
2019-01-03T07:40:16.491Z,-0.50
2019-01-03T07:43:05.106Z,-0.50
2019-01-03T07:46:03.594Z,-0.50
2019-01-03T07:48:52.251Z,-0.40
2019-01-03T07:51:48.056Z,-0.40
2019-01-03T07:54:35.306Z,-0.40
2019-01-03T07:57:26.622Z,-0.40
2019-01-03T08:00:28.922Z,-0.40
2019-01-03T08:03:17.522Z,-0.40
2019-01-03T08:06:14.340Z,-0.40
2019-01-03T08:09:18.025Z,-0.40
2019-01-03T08:12:21.529Z,-0.40
2019-01-03T08:15:12.961Z,-0.40
2019-01-03T08:18:10.744Z,-0.30
2019-01-03T08:20:58.643Z,-0.30
2019-01-03T08:23:52.997Z,-0.30
2019-01-03T08:26:41.636Z,-0.30
2019-01-03T08:29:33.261Z,-0.30
2019-01-03T08:32:21.892Z,-0.30
2019-01-03T08:35:13.205Z,-0.30
2019-01-03T08:38:00.620Z,-0.40
2019-01-03T08:40:48.111Z,-0.30
2019-01-03T08:43:35.300Z,-0.30
2019-01-03T08:46:39.026Z,-0.40
2019-01-03T08:49:42.986Z,-0.40
2019-01-03T08:52:36.694Z,-0.40
2019-01-03T08:55:34.426Z,-0.30
2019-01-03T08:58:41.113Z,-0.20
2019-01-03T09:01:28.066Z,-0.20
2019-01-03T09:04:15.182Z,-0.30
2019-01-03T09:07:02.379Z,-0.20
2019-01-03T09:09:49.481Z,-0.20
2019-01-03T09:12:36.725Z,-0.20
2019-01-03T09:15:24.649Z,-0.10
2019-01-03T09:18:25.125Z,0.00
2019-01-03T09:21:28.950Z,0.00
2019-01-03T09:24:16.212Z,0.00
2019-01-03T09:26:58.713Z,0.10
2019-01-03T09:29:50.965Z,0.10
2019-01-03T09:32:51.437Z,0.20
2019-01-03T09:35:55.189Z,0.20
2019-01-03T09:38:55.764Z,0.20
2019-01-03T09:41:56.479Z,0.30
2019-01-03T09:44:43.707Z,0.30
2019-01-03T09:47:14.534Z,0.30
2019-01-03T09:49:44.209Z,0.40
2019-01-03T09:52:13.857Z,0.30
2019-01-03T09:54:43.587Z,0.20
2019-01-03T09:57:13.469Z,0.20
2019-01-03T09:59:43.202Z,0.20
2019-01-03T10:02:12.857Z,0.20
2019-01-03T10:04:42.528Z,0.20
2019-01-03T10:07:12.293Z,0.30
2019-01-03T10:09:42.117Z,0.30
2019-01-03T10:12:11.726Z,0.30
2019-01-03T10:14:41.458Z,0.30
2019-01-03T10:17:11.230Z,0.40
2019-01-03T10:19:40.981Z,0.60
2019-01-03T10:22:10.720Z,0.70
2019-01-03T10:24:40.432Z,0.70
2019-01-03T10:27:10.184Z,0.50
2019-01-03T10:29:40.019Z,0.50
2019-01-03T10:32:09.749Z,0.40
2019-01-03T10:34:39.481Z,0.50
2019-01-03T10:37:09.175Z,0.50
2019-01-03T10:39:38.947Z,0.40
2019-01-03T10:42:08.661Z,0.40
2019-01-03T10:44:38.372Z,0.50
2019-01-03T10:47:08.040Z,0.50
2019-01-03T10:49:37.794Z,0.60
2019-01-03T10:52:07.516Z,0.60
2019-01-03T10:54:37.308Z,0.50
2019-01-03T10:57:07.061Z,0.40
2019-01-03T10:59:36.758Z,0.40
2019-01-03T11:02:06.526Z,0.20
2019-01-03T11:04:36.201Z,0.20
2019-01-03T11:07:05.940Z,0.20
2019-01-03T11:09:35.574Z,0.30
2019-01-03T11:12:05.494Z,0.30
2019-01-03T11:14:35.273Z,0.30
2019-01-03T11:17:05.034Z,0.30
2019-01-03T11:19:34.820Z,0.20
2019-01-03T11:22:04.470Z,0.20
2019-01-03T11:24:34.169Z,0.20
2019-01-03T11:27:03.820Z,0.10
2019-01-03T11:29:33.557Z,0.10
2019-01-03T11:32:03.315Z,0.10
2019-01-03T11:34:33.429Z,0.10
2019-01-03T11:37:03.244Z,0.10
2019-01-03T11:39:32.997Z,0.10
2019-01-03T11:42:02.742Z,0.10
2019-01-03T11:44:32.513Z,0.10
2019-01-03T11:47:02.249Z,0.20
2019-01-03T11:49:31.977Z,0.20
2019-01-03T11:52:01.640Z,0.20
2019-01-03T11:54:31.338Z,0.20
2019-01-03T11:57:01.020Z,0.30
2019-01-03T11:59:30.709Z,0.30
2019-01-03T12:02:00.368Z,0.30
2019-01-03T12:04:30.038Z,0.30
2019-01-03T12:06:59.820Z,0.30
2019-01-03T12:09:29.586Z,0.30
2019-01-03T12:11:59.257Z,0.30
2019-01-03T12:14:28.926Z,0.30
2019-01-03T12:16:58.641Z,0.30
2019-01-03T12:19:28.317Z,0.30
2019-01-03T12:21:58.033Z,0.30
2019-01-03T12:24:30.820Z,0.40
2019-01-03T12:26:59.132Z,0.40
2019-01-03T12:29:30.018Z,0.40
2019-01-03T12:31:59.719Z,0.40
2019-01-03T12:34:29.442Z,0.40
2019-01-03T12:36:59.203Z,0.50
2019-01-03T12:39:28.815Z,0.30
2019-01-03T12:41:58.582Z,0.40
2019-01-03T12:44:28.231Z,0.30
2019-01-03T12:46:57.943Z,0.30
2019-01-03T12:49:29.924Z,0.40
2019-01-03T12:51:59.652Z,0.40
2019-01-03T12:54:29.383Z,0.30
2019-01-03T12:56:59.015Z,0.20
2019-01-03T12:59:28.661Z,0.20
2019-01-03T13:01:58.298Z,0.20
2019-01-03T13:04:27.984Z,0.00
2019-01-03T13:06:59.437Z,-0.10
2019-01-03T13:09:29.143Z,-0.10
2019-01-03T13:11:58.905Z,-0.10
2019-01-03T13:14:28.590Z,-0.10
2019-01-03T13:16:58.228Z,-0.10
2019-01-03T13:19:27.951Z,-0.20
2019-01-03T13:21:57.736Z,-0.20
2019-01-03T13:24:27.393Z,-0.30
2019-01-03T13:26:57.049Z,-0.30
2019-01-03T13:29:26.648Z,-0.30
2019-01-03T13:31:56.361Z,-0.30
2019-01-03T13:34:26.120Z,-0.30
2019-01-03T13:36:55.862Z,-0.20
2019-01-03T13:39:25.662Z,-0.20
2019-01-03T13:41:55.353Z,-0.30
2019-01-03T13:44:25.044Z,-0.20
2019-01-03T13:46:54.789Z,-0.10
2019-01-03T13:49:24.540Z,0.10
2019-01-03T13:51:54.265Z,0.10
2019-01-03T13:54:24.036Z,0.10
2019-01-03T13:56:53.737Z,0.10
2019-01-03T13:59:23.555Z,0.00
2019-01-03T14:01:53.693Z,0.00
2019-01-03T14:04:23.401Z,-0.10
2019-01-03T14:06:53.187Z,-0.10
2019-01-03T14:09:22.864Z,-0.20
2019-01-03T14:11:52.623Z,-0.20
2019-01-03T14:14:22.300Z,-0.20
2019-01-03T14:16:52.021Z,-0.10
2019-01-03T14:19:21.754Z,0.00
2019-01-03T14:21:53.052Z,0.10
2019-01-03T14:24:22.785Z,0.20
2019-01-03T14:26:52.526Z,0.20
2019-01-03T14:29:22.205Z,0.20
2019-01-03T14:31:51.925Z,0.10
2019-01-03T14:34:21.689Z,0.10
2019-01-03T14:36:51.508Z,0.20
2019-01-03T14:39:21.294Z,0.10
2019-01-03T14:41:50.980Z,0.10
2019-01-03T14:44:20.609Z,0.20
2019-01-03T14:46:50.272Z,0.20
2019-01-03T14:49:19.925Z,0.10
2019-01-03T14:51:49.778Z,0.00
2019-01-03T14:54:19.624Z,0.10
2019-01-03T14:56:49.243Z,0.10
2019-01-03T14:59:20.081Z,0.20
2019-01-03T15:01:49.917Z,0.20
2019-01-03T15:04:19.646Z,0.10
2019-01-03T15:06:49.399Z,0.10
2019-01-03T15:09:19.129Z,0.20
2019-01-03T15:11:48.882Z,0.20
2019-01-03T15:14:18.582Z,0.10
2019-01-03T15:16:48.327Z,0.10
2019-01-03T15:19:18.158Z,0.00
2019-01-03T15:21:47.790Z,0.00
2019-01-03T15:24:17.593Z,0.00
2019-01-03T15:26:47.446Z,0.00
2019-01-03T15:29:17.234Z,0.00
2019-01-03T15:31:46.906Z,-0.10
2019-01-03T15:34:16.600Z,-0.10
2019-01-03T15:36:47.653Z,-0.10
2019-01-03T15:39:17.304Z,0.00
2019-01-03T15:41:47.056Z,0.00
2019-01-03T15:44:16.760Z,0.00
2019-01-03T15:46:46.472Z,-0.10
2019-01-03T15:49:16.193Z,0.00
2019-01-03T15:51:45.914Z,0.00
2019-01-03T15:54:15.918Z,-0.10
2019-01-03T15:56:46.306Z,-0.10
2019-01-03T15:59:16.032Z,-0.20
2019-01-03T16:01:45.702Z,-0.20
2019-01-03T16:04:15.444Z,-0.20
2019-01-03T16:06:45.095Z,-0.30
2019-01-03T16:09:14.741Z,-0.40
2019-01-03T16:11:44.489Z,-0.30
2019-01-03T16:14:14.263Z,-0.30
2019-01-03T16:16:44.038Z,-0.30
2019-01-03T16:19:13.753Z,-0.30
2019-01-03T16:21:43.586Z,-0.30
2019-01-03T16:24:13.313Z,-0.30
2019-01-03T16:26:42.983Z,-0.30
2019-01-03T16:29:12.845Z,-0.20
2019-01-03T16:31:42.842Z,-0.20
2019-01-03T16:34:12.517Z,-0.30
2019-01-03T16:36:42.205Z,-0.30
2019-01-03T16:39:11.987Z,-0.30
2019-01-03T16:41:41.676Z,-0.20
2019-01-03T16:44:11.409Z,-0.30
2019-01-03T16:46:41.193Z,-0.20
2019-01-03T16:49:10.818Z,-0.20
2019-01-03T16:51:40.520Z,-0.20
2019-01-03T16:54:10.305Z,-0.20
2019-01-03T16:56:40.076Z,-0.20
2019-01-03T16:59:09.758Z,-0.20
2019-01-03T17:01:39.434Z,-0.20
2019-01-03T17:04:09.271Z,-0.20
2019-01-03T17:06:39.053Z,-0.20
2019-01-03T17:09:09.488Z,-0.20
2019-01-03T17:11:39.289Z,-0.30
2019-01-03T17:14:09.027Z,-0.40
2019-01-03T17:16:38.768Z,-0.40
2019-01-03T17:19:08.536Z,-0.50
2019-01-03T17:21:38.194Z,-0.50
2019-01-03T17:24:07.969Z,-0.50
2019-01-03T17:26:37.694Z,-0.40
2019-01-03T17:29:07.318Z,-0.40
2019-01-03T17:31:37.085Z,-0.40
2019-01-03T17:34:06.836Z,-0.40
2019-01-03T17:36:36.646Z,-0.40
2019-01-03T17:39:07.208Z,-0.40
2019-01-03T17:41:36.981Z,-0.40
2019-01-03T17:44:06.689Z,-0.40
2019-01-03T17:46:37.902Z,-0.40
2019-01-03T17:49:07.629Z,-0.30
2019-01-03T17:51:37.405Z,-0.30
2019-01-03T17:54:07.167Z,-0.40
2019-01-03T17:56:36.909Z,-0.40
2019-01-03T17:59:06.728Z,-0.40
2019-01-03T18:01:36.402Z,-0.50
2019-01-03T18:04:06.220Z,-0.40
2019-01-03T18:06:35.968Z,-0.40
2019-01-03T18:09:06.398Z,-0.50
2019-01-03T18:11:36.238Z,-0.50
2019-01-03T18:14:05.961Z,-0.50
2019-01-03T18:16:35.706Z,-0.60
2019-01-03T18:19:05.353Z,-0.60
2019-01-03T18:21:34.972Z,-0.70
2019-01-03T18:24:04.727Z,-0.70
2019-01-03T18:26:34.489Z,-0.70
2019-01-03T18:29:04.284Z,-0.70
2019-01-03T18:31:33.934Z,-0.80
2019-01-03T18:34:03.993Z,-0.80
2019-01-03T18:36:33.661Z,-0.80
2019-01-03T18:39:03.393Z,-0.80
2019-01-03T18:41:33.152Z,-0.80
2019-01-03T18:44:02.941Z,-0.80
2019-01-03T18:46:32.573Z,-0.80
2019-01-03T18:49:02.359Z,-0.80
2019-01-03T18:51:32.098Z,-0.80
2019-01-03T18:54:01.736Z,-0.80
2019-01-03T18:56:31.455Z,-0.70
2019-01-03T18:59:01.114Z,-0.70
2019-01-03T19:01:30.752Z,-0.70
2019-01-03T19:04:00.593Z,-0.80
2019-01-03T19:06:30.353Z,-0.80
2019-01-03T19:09:00.040Z,-0.80
2019-01-03T19:11:29.825Z,-0.80
2019-01-03T19:13:59.486Z,-0.90
2019-01-03T19:16:29.174Z,-0.90
2019-01-03T19:18:59.449Z,-0.90
2019-01-03T19:21:29.098Z,-0.90
2019-01-03T19:23:58.786Z,-0.90
2019-01-03T19:26:28.597Z,-0.90
2019-01-03T19:28:58.216Z,-0.90
2019-01-03T19:31:27.864Z,-0.90
2019-01-03T19:33:57.546Z,-0.80
2019-01-03T19:36:27.283Z,-0.80
2019-01-03T19:38:57.005Z,-0.80
2019-01-03T19:41:26.785Z,-0.80
2019-01-03T19:43:56.537Z,-0.80
2019-01-03T19:46:26.197Z,-0.80
2019-01-03T19:48:55.888Z,-0.80
2019-01-03T19:51:25.570Z,-0.80
2019-01-03T19:53:55.379Z,-0.70
2019-01-03T19:56:26.021Z,-0.80
2019-01-03T19:58:55.768Z,-0.80
2019-01-03T20:01:25.453Z,-0.80
2019-01-03T20:03:55.270Z,-0.80
2019-01-03T20:06:25.114Z,-0.90
2019-01-03T20:08:54.856Z,-1.00
2019-01-03T20:11:24.700Z,-1.10
2019-01-03T20:13:56.393Z,-1.10
2019-01-03T20:16:26.077Z,-1.10
2019-01-03T20:18:57.185Z,-1.00
2019-01-03T20:21:27.013Z,-1.00
2019-01-03T20:23:59.343Z,-1.00
2019-01-03T20:26:32.582Z,-1.00
2019-01-03T20:29:02.402Z,-1.00
2019-01-03T20:31:33.365Z,-1.00
2019-01-03T20:34:03.582Z,-1.00
2019-01-03T20:36:33.949Z,-1.00
2019-01-03T20:39:04.130Z,-1.00
2019-01-03T20:41:33.972Z,-0.90
2019-01-03T20:44:04.774Z,-0.90
2019-01-03T20:46:35.041Z,-0.90
2019-01-03T20:49:04.926Z,-0.90
2019-01-03T20:51:34.771Z,-0.90
2019-01-03T20:54:06.371Z,-0.90
2019-01-03T20:56:37.329Z,-1.00
2019-01-03T20:59:08.070Z,-0.90
2019-01-03T21:01:37.875Z,-1.00
2019-01-03T21:04:07.694Z,-0.90
2019-01-03T21:06:37.519Z,-0.90
2019-01-03T21:09:09.358Z,-0.90
2019-01-03T21:11:39.217Z,-0.90
2019-01-03T21:14:09.073Z,-0.90
2019-01-03T21:16:39.009Z,-0.90
2019-01-03T21:19:08.883Z,-1.00
2019-01-03T21:21:38.752Z,-1.00
2019-01-03T21:24:08.521Z,-1.00
2019-01-03T21:26:38.421Z,-1.00
2019-01-03T21:29:08.276Z,-1.00
2019-01-03T21:31:38.046Z,-1.10
2019-01-03T21:34:07.833Z,-1.00
2019-01-03T21:36:37.667Z,-1.00
2019-01-03T21:39:08.153Z,-1.00
2019-01-03T21:41:38.024Z,-1.00
2019-01-03T21:44:07.830Z,-1.00
2019-01-03T21:46:37.697Z,-1.00
2019-01-03T21:49:07.501Z,-1.00
2019-01-03T21:51:37.721Z,-1.00
2019-01-03T21:54:07.541Z,-1.00
2019-01-03T21:56:37.408Z,-1.10
2019-01-03T21:59:07.212Z,-1.00
2019-01-03T22:01:37.017Z,-1.10
2019-01-03T22:04:06.801Z,-1.10
2019-01-03T22:06:36.538Z,-1.10
2019-01-03T22:09:07.140Z,-1.10
2019-01-03T22:11:36.868Z,-1.10
2019-01-03T22:14:06.521Z,-1.10
2019-01-03T22:16:36.310Z,-1.10
2019-01-03T22:19:05.939Z,-1.10
2019-01-03T22:21:35.685Z,-1.10
2019-01-03T22:24:05.401Z,-1.10
2019-01-03T22:26:35.196Z,-1.10
2019-01-03T22:29:04.966Z,-1.00
2019-01-03T22:31:34.664Z,-1.10
2019-01-03T22:34:04.452Z,-1.10
2019-01-03T22:36:34.150Z,-1.20
2019-01-03T22:39:04.374Z,-1.20
2019-01-03T22:41:34.169Z,-1.20
2019-01-03T22:44:03.913Z,-1.10
2019-01-03T22:46:33.621Z,-1.10
2019-01-03T22:49:03.294Z,-1.00
2019-01-03T22:51:32.952Z,-1.00
2019-01-03T22:54:02.629Z,-0.90
2019-01-03T22:56:32.321Z,-0.90
2019-01-03T22:59:01.952Z,-1.00
2019-01-03T23:01:32.106Z,-0.90
2019-01-03T23:04:01.918Z,-1.00
2019-01-03T23:06:31.624Z,-1.00
2019-01-03T23:09:01.344Z,-1.00
2019-01-03T23:11:31.016Z,-1.00
2019-01-03T23:14:00.709Z,-1.10
2019-01-03T23:16:30.429Z,-1.00
2019-01-03T23:19:00.940Z,-1.10
2019-01-03T23:21:30.601Z,-1.10
2019-01-03T23:24:00.306Z,-1.10
2019-01-03T23:26:30.022Z,-1.10
2019-01-03T23:28:59.778Z,-1.20
2019-01-03T23:31:29.626Z,-1.20
2019-01-03T23:33:59.380Z,-1.10
2019-01-03T23:36:29.225Z,-1.10
2019-01-03T23:38:58.953Z,-1.10
2019-01-03T23:41:28.797Z,-1.10
2019-01-03T23:43:58.558Z,-1.10
2019-01-03T23:46:28.373Z,-1.20
2019-01-03T23:48:58.073Z,-1.10
2019-01-03T23:51:27.820Z,-1.10
2019-01-03T23:53:57.460Z,-1.10
2019-01-03T23:56:27.245Z,-1.20
2019-01-03T23:58:56.981Z,-1.20
